PWSweather.com
Personal Weather Stations
Station Observations
GEELONGWX1
Bell Post Hill, GeelongAU

Bell Post HillGeelongAU

Lat: -38.101, Lon: 144.326

Elevation: 204

Station Type: Davis Vantage Pro2

http://www.geelongweather.com

Latest ConditionsUpdated 4:10:01 PM GMT+10:10 Thursday, Oct 18, 2018
Currently Today's Max Today's Min Today's Average
Temperature 67.8°F19.9°C 70.9°F21.6°C 55.5°F13.1°C 60.8°F16.0°C
Dew Point 56.0°F13.3°C 58.0°F14.4°C 53.5°F11.9°C 55.4°F13.0°C
Winds 5.8 mph SW9.3 kmh SW 13.8 mph -22.2 kmh - - 5.4 mph 8.7 kmh
Wind Gusts 10.4 mph16.7 kmh 23.0 mph37.0 kmh - -
Humidity 66% 94% 59% 83%
Pressure 29.98 in1015.2 mb 30.00 in1015.9 mb 29.92 in1013.2 mb -
Precipitation - 0.11 in2.8 mm - -
Hour Temp Dew Point Humidity Winds Wind Gusts Pressure Precip Precip Rate Daily Precip Total
04:10 PM 67.8°F19.9°C 56.0°F13.3°C 66% 5.8 mph SW9.3 kmh SW 10.4 mph16.7 kmh 29.98 in1015.2 mb - 0.00 in0.0 mm 0.11 in2.8 mm
04:00 PM 68.0°F20.0°C 56.2°F13.4°C 66% 5.8 mph SSW9.3 kmh SSW 6.9 mph11.1 kmh 29.98 in1015.2 mb - 0.00 in0.0 mm 0.11 in2.8 mm
03:50 PM 68.1°F20.1°C 56.3°F13.5°C 66% 9.2 mph SSW14.8 kmh SSW 11.5 mph18.5 kmh 29.98 in1015.2 mb - 0.00 in0.0 mm 0.11 in2.8 mm
03:40 PM 68.1°F20.1°C 56.3°F13.5°C 66% 9.2 mph SW14.8 kmh SW 12.7 mph20.4 kmh 29.98 in1015.2 mb - 0.00 in0.0 mm 0.11 in2.8 mm
03:30 PM 68.5°F20.3°C 56.7°F13.7°C 66% 8.1 mph S13.0 kmh S 13.8 mph22.2 kmh 29.98 in1015.2 mb - 0.00 in0.0 mm 0.11 in2.8 mm
03:20 PM 68.7°F20.4°C 56.5°F13.6°C 65% 8.1 mph SW13.0 kmh SW 13.8 mph22.2 kmh 29.98 in1015.2 mb - 0.00 in0.0 mm 0.11 in2.8 mm
03:10 PM 68.9°F20.5°C 56.6°F13.7°C 65% 5.8 mph SW9.3 kmh SW 11.5 mph18.5 kmh 29.98 in1015.2 mb - 0.00 in0.0 mm 0.11 in2.8 mm
03:00 PM 69.8°F21.0°C 56.2°F13.4°C 62% 8.1 mph SW13.0 kmh SW 11.5 mph18.5 kmh 29.98 in1015.2 mb - 0.00 in0.0 mm 0.11 in2.8 mm
02:50 PM 70.4°F21.3°C 56.3°F13.5°C 61% 10.4 mph SSW16.7 kmh SSW 16.1 mph25.9 kmh 29.97 in1014.9 mb - 0.00 in0.0 mm 0.11 in2.8 mm
02:40 PM 70.7°F21.5°C 55.6°F13.1°C 59% 8.1 mph SW13.0 kmh SW 10.4 mph16.7 kmh 29.97 in1014.9 mb - 0.00 in0.0 mm 0.11 in2.8 mm
02:30 PM 70.9°F21.6°C 55.8°F13.2°C 59% 8.1 mph SSW13.0 kmh SSW 11.5 mph18.5 kmh 29.97 in1014.9 mb - 0.00 in0.0 mm 0.11 in2.8 mm
02:20 PM 70.5°F21.4°C 55.9°F13.3°C 60% 8.1 mph SW13.0 kmh SW 15.0 mph24.1 kmh 29.97 in1014.9 mb - 0.00 in0.0 mm 0.11 in2.8 mm
02:10 PM 69.9°F21.1°C 55.4°F13.0°C 60% 8.1 mph SW13.0 kmh SW 11.5 mph18.5 kmh 29.98 in1015.2 mb - 0.00 in0.0 mm 0.11 in2.8 mm
02:00 PM 68.8°F20.4°C 56.6°F13.7°C 65% 8.1 mph SSW13.0 kmh SSW 13.8 mph22.2 kmh 29.98 in1015.2 mb - 0.00 in0.0 mm 0.11 in2.8 mm
01:50 PM 68.4°F20.2°C 56.2°F13.4°C 65% 6.9 mph SW11.1 kmh SW 13.8 mph22.2 kmh 29.98 in1015.2 mb - 0.00 in0.0 mm 0.11 in2.8 mm
01:40 PM 68.4°F20.2°C 56.2°F13.4°C 65% 6.9 mph SW11.1 kmh SW 11.5 mph18.5 kmh 29.98 in1015.2 mb - 0.00 in0.0 mm 0.11 in2.8 mm
01:30 PM 68.1°F20.1°C 56.3°F13.5°C 66% 9.2 mph SSW14.8 kmh SSW 15.0 mph24.1 kmh 29.98 in1015.2 mb - 0.00 in0.0 mm 0.11 in2.8 mm
01:20 PM 67.9°F19.9°C 56.9°F13.8°C 68% 6.9 mph SW11.1 kmh SW 11.5 mph18.5 kmh 29.98 in1015.2 mb - 0.00 in0.0 mm 0.11 in2.8 mm
01:10 PM 67.3°F19.6°C 57.9°F14.4°C 72% 4.6 mph S7.4 kmh S 11.5 mph18.5 kmh 29.98 in1015.2 mb - 0.00 in0.0 mm 0.11 in2.8 mm
01:00 PM 66.6°F19.2°C 57.3°F14.1°C 72% 5.8 mph SW9.3 kmh SW 6.9 mph11.1 kmh 29.98 in1015.2 mb - 0.00 in0.0 mm 0.11 in2.8 mm
12:50 PM 65.7°F18.7°C 57.1°F13.9°C 74% 4.6 mph SW7.4 kmh SW 10.4 mph16.7 kmh 29.98 in1015.2 mb - 0.00 in0.0 mm 0.11 in2.8 mm
12:40 PM 65.1°F18.4°C 57.4°F14.1°C 76% 4.6 mph SW7.4 kmh SW 10.4 mph16.7 kmh 29.99 in1015.6 mb - 0.00 in0.0 mm 0.11 in2.8 mm
12:30 PM 65.1°F18.4°C 57.0°F13.9°C 75% 6.9 mph SSW11.1 kmh SSW 10.4 mph16.7 kmh 29.99 in1015.6 mb - 0.01 in0.3 mm 0.11 in2.8 mm
12:20 PM 66.0°F18.9°C 57.1°F13.9°C 73% 6.9 mph SW11.1 kmh SW 16.1 mph25.9 kmh 29.99 in1015.6 mb - 0.00 in0.0 mm 0.11 in2.8 mm
12:10 PM 66.4°F19.1°C 56.7°F13.7°C 71% 6.9 mph SSW11.1 kmh SSW 13.8 mph22.2 kmh 29.99 in1015.6 mb - 0.00 in0.0 mm 0.11 in2.8 mm
12:00 PM 66.0°F18.9°C 57.9°F14.4°C 75% 10.4 mph SW16.7 kmh SW 12.7 mph20.4 kmh 29.99 in1015.6 mb - 0.00 in0.0 mm 0.11 in2.8 mm
11:50 AM 64.6°F18.1°C 57.2°F14.0°C 77% 9.2 mph SW14.8 kmh SW 11.5 mph18.5 kmh 29.99 in1015.6 mb - 0.00 in0.0 mm 0.11 in2.8 mm
11:40 AM 64.7°F18.2°C 58.0°F14.4°C 79% 8.1 mph SW13.0 kmh SW 15.0 mph24.1 kmh 29.99 in1015.6 mb - 0.00 in0.0 mm 0.11 in2.8 mm
11:30 AM 64.3°F17.9°C 57.3°F14.1°C 78% 6.9 mph SW11.1 kmh SW 12.7 mph20.4 kmh 29.99 in1015.6 mb - 0.00 in0.0 mm 0.11 in2.8 mm
11:20 AM 64.6°F18.1°C 56.1°F13.4°C 74% 13.8 mph SW22.2 kmh SW 23.0 mph37.0 kmh 30.00 in1015.9 mb - 0.00 in0.0 mm 0.11 in2.8 mm
11:10 AM 64.1°F17.8°C 55.6°F13.1°C 74% 9.2 mph SW14.8 kmh SW 11.5 mph18.5 kmh 30.00 in1015.9 mb - 0.00 in0.0 mm 0.11 in2.8 mm
11:00 AM 63.3°F17.4°C 56.0°F13.3°C 77% 10.4 mph SW16.7 kmh SW 13.8 mph22.2 kmh 29.99 in1015.6 mb - 0.00 in0.0 mm 0.11 in2.8 mm
10:50 AM 62.7°F17.1°C 55.4°F13.0°C 77% 6.9 mph SW11.1 kmh SW 11.5 mph18.5 kmh 30.00 in1015.9 mb - 0.00 in0.0 mm 0.11 in2.8 mm
10:40 AM 62.6°F17.0°C 55.3°F12.9°C 77% 8.1 mph SW13.0 kmh SW 10.4 mph16.7 kmh 30.00 in1015.9 mb - 0.00 in0.0 mm 0.11 in2.8 mm
10:30 AM 62.6°F17.0°C 55.6°F13.1°C 78% 5.8 mph WSW9.3 kmh WSW 8.1 mph13.0 kmh 30.00 in1015.9 mb - 0.00 in0.0 mm 0.11 in2.8 mm
10:20 AM 62.6°F17.0°C 55.6°F13.1°C 78% 8.1 mph WSW13.0 kmh WSW 16.1 mph25.9 kmh 30.00 in1015.9 mb - 0.00 in0.0 mm 0.11 in2.8 mm
10:10 AM 62.3°F16.8°C 56.0°F13.3°C 80% 8.1 mph SW13.0 kmh SW 15.0 mph24.1 kmh 30.00 in1015.9 mb - 0.00 in0.0 mm 0.11 in2.8 mm
10:00 AM 61.8°F16.6°C 55.9°F13.3°C 81% 8.1 mph WSW13.0 kmh WSW 12.7 mph20.4 kmh 30.00 in1015.9 mb - 0.00 in0.0 mm 0.11 in2.8 mm
09:50 AM 61.7°F16.5°C 56.1°F13.4°C 82% 5.8 mph SW9.3 kmh SW 8.1 mph13.0 kmh 30.00 in1015.9 mb - 0.00 in0.0 mm 0.11 in2.8 mm
09:40 AM 61.1°F16.2°C 55.9°F13.3°C 83% 5.8 mph WSW9.3 kmh WSW 11.5 mph18.5 kmh 30.00 in1015.9 mb - 0.00 in0.0 mm 0.11 in2.8 mm
09:30 AM 61.2°F16.2°C 56.0°F13.3°C 83% 5.8 mph SW9.3 kmh SW 8.1 mph13.0 kmh 30.00 in1015.9 mb - 0.00 in0.0 mm 0.11 in2.8 mm
09:20 AM 61.2°F16.2°C 56.7°F13.7°C 85% 4.6 mph WSW7.4 kmh WSW 6.9 mph11.1 kmh 30.00 in1015.9 mb - 0.00 in0.0 mm 0.11 in2.8 mm
09:10 AM 60.7°F15.9°C 56.5°F13.6°C 86% 5.8 mph SW9.3 kmh SW 8.1 mph13.0 kmh 30.00 in1015.9 mb - 0.00 in0.0 mm 0.11 in2.8 mm
09:00 AM 60.2°F15.7°C 55.7°F13.2°C 85% 9.2 mph SW14.8 kmh SW 12.7 mph20.4 kmh 30.00 in1015.9 mb - 0.00 in0.0 mm 0.11 in2.8 mm
08:50 AM 60.2°F15.7°C 56.0°F13.3°C 86% 8.1 mph SW13.0 kmh SW 15.0 mph24.1 kmh 30.00 in1015.9 mb - 0.00 in0.0 mm 0.11 in2.8 mm
08:40 AM 60.3°F15.7°C 56.7°F13.7°C 88% 3.5 mph S5.6 kmh S 5.8 mph9.3 kmh 30.00 in1015.9 mb - 0.00 in0.0 mm 0.11 in2.8 mm
08:30 AM 60.2°F15.7°C 56.9°F13.8°C 89% 6.9 mph SW11.1 kmh SW 8.1 mph13.0 kmh 30.00 in1015.9 mb - 0.00 in0.0 mm 0.11 in2.8 mm
08:20 AM 60.2°F15.7°C 57.3°F14.1°C 90% 4.6 mph SW7.4 kmh SW 10.4 mph16.7 kmh 29.99 in1015.6 mb - 0.00 in0.0 mm 0.11 in2.8 mm
08:10 AM 60.2°F15.7°C 57.9°F14.4°C 92% 5.8 mph SW9.3 kmh SW 9.2 mph14.8 kmh 29.99 in1015.6 mb - 0.00 in0.0 mm 0.11 in2.8 mm
08:00 AM 59.1°F15.1°C 57.1°F13.9°C 93% 3.5 mph SW5.6 kmh SW 4.6 mph7.4 kmh 29.98 in1015.2 mb - 0.00 in0.0 mm 0.11 in2.8 mm
07:50 AM 58.6°F14.8°C 56.6°F13.7°C 93% 5.8 mph WSW9.3 kmh WSW 8.1 mph13.0 kmh 29.98 in1015.2 mb - 0.00 in0.0 mm 0.11 in2.8 mm
07:40 AM 58.2°F14.6°C 56.2°F13.4°C 93% 3.5 mph SW5.6 kmh SW 6.9 mph11.1 kmh 29.98 in1015.2 mb - 0.00 in0.0 mm 0.11 in2.8 mm
07:30 AM 57.6°F14.2°C 55.6°F13.1°C 93% 5.8 mph WSW9.3 kmh WSW 8.1 mph13.0 kmh 29.98 in1015.2 mb - 0.00 in0.0 mm 0.11 in2.8 mm
07:20 AM 57.4°F14.1°C 55.7°F13.2°C 94% 5.8 mph WSW9.3 kmh WSW 5.8 mph9.3 kmh 29.98 in1015.2 mb - 0.00 in0.0 mm 0.11 in2.8 mm
07:10 AM 56.9°F13.8°C 55.2°F12.9°C 94% 2.3 mph WSW3.7 kmh WSW 5.8 mph9.3 kmh 29.98 in1015.2 mb - 0.00 in0.0 mm 0.11 in2.8 mm
07:00 AM 56.0°F13.3°C 54.0°F12.2°C 93% 3.5 mph WSW5.6 kmh WSW 4.6 mph7.4 kmh 29.97 in1014.9 mb - 0.00 in0.0 mm 0.11 in2.8 mm
06:50 AM 55.7°F13.2°C 53.7°F12.1°C 93% 2.3 mph WSW3.7 kmh WSW 3.5 mph5.6 kmh 29.97 in1014.9 mb - 0.00 in0.0 mm 0.11 in2.8 mm
06:40 AM 55.7°F13.2°C 53.7°F12.1°C 93% 2.3 mph WSW3.7 kmh WSW 4.6 mph7.4 kmh 29.97 in1014.9 mb - 0.00 in0.0 mm 0.11 in2.8 mm
06:30 AM 55.7°F13.2°C 53.7°F12.1°C 93% 2.3 mph SW3.7 kmh SW 3.5 mph5.6 kmh 29.97 in1014.9 mb - 0.00 in0.0 mm 0.11 in2.8 mm
06:20 AM 55.6°F13.1°C 53.6°F12.0°C 93% 4.6 mph WSW7.4 kmh WSW 5.8 mph9.3 kmh 29.96 in1014.6 mb - 0.00 in0.0 mm 0.11 in2.8 mm
06:10 AM 55.5°F13.1°C 53.5°F11.9°C 93% 4.6 mph WSW7.4 kmh WSW 8.1 mph13.0 kmh 29.96 in1014.6 mb - 0.00 in0.0 mm 0.11 in2.8 mm
06:00 AM 55.5°F13.1°C 53.5°F11.9°C 93% 2.3 mph WSW3.7 kmh WSW 3.5 mph5.6 kmh 29.96 in1014.6 mb - 0.00 in0.0 mm 0.11 in2.8 mm
05:50 AM 55.5°F13.1°C 53.5°F11.9°C 93% 2.3 mph WSW3.7 kmh WSW 3.5 mph5.6 kmh 29.96 in1014.6 mb - 0.00 in0.0 mm 0.11 in2.8 mm
05:40 AM 55.6°F13.1°C 53.6°F12.0°C 93% 2.3 mph WSW3.7 kmh WSW 3.5 mph5.6 kmh 29.95 in1014.2 mb - 0.00 in0.0 mm 0.11 in2.8 mm
05:30 AM 55.7°F13.2°C 53.7°F12.1°C 93% 5.8 mph SW9.3 kmh SW 8.1 mph13.0 kmh 29.95 in1014.2 mb - 0.00 in0.0 mm 0.11 in2.8 mm
05:20 AM 55.7°F13.2°C 53.7°F12.1°C 93% 4.6 mph SW7.4 kmh SW 3.5 mph5.6 kmh 29.95 in1014.2 mb - 0.00 in0.0 mm 0.11 in2.8 mm
05:10 AM 55.7°F13.2°C 53.8°F12.1°C 93% 2.3 mph WSW3.7 kmh WSW 2.3 mph3.7 kmh 29.95 in1014.2 mb - 0.00 in0.0 mm 0.11 in2.8 mm
05:00 AM 55.7°F13.2°C 53.7°F12.1°C 93% 1.2 mph WSW1.9 kmh WSW 2.3 mph3.7 kmh 29.95 in1014.2 mb - 0.00 in0.0 mm 0.11 in2.8 mm
04:50 AM 55.7°F13.2°C 53.7°F12.1°C 93% 1.2 mph WSW1.9 kmh WSW 3.5 mph5.6 kmh 29.94 in1013.9 mb - 0.00 in0.0 mm 0.11 in2.8 mm
04:40 AM 55.7°F13.2°C 53.7°F12.1°C 93% 4.6 mph SW7.4 kmh SW 8.1 mph13.0 kmh 29.94 in1013.9 mb - 0.00 in0.0 mm 0.11 in2.8 mm
04:30 AM 55.7°F13.2°C 53.7°F12.1°C 93% 4.6 mph WSW7.4 kmh WSW 4.6 mph7.4 kmh 29.94 in1013.9 mb - 0.00 in0.0 mm 0.11 in2.8 mm
04:20 AM 55.8°F13.2°C 53.8°F12.1°C 93% 4.6 mph WSW7.4 kmh WSW 5.8 mph9.3 kmh 29.94 in1013.9 mb - 0.00 in0.0 mm 0.11 in2.8 mm
04:10 AM 55.9°F13.3°C 53.9°F12.2°C 93% 4.6 mph WSW7.4 kmh WSW 4.6 mph7.4 kmh 29.93 in1013.5 mb - 0.00 in0.0 mm 0.11 in2.8 mm
04:00 AM 55.9°F13.3°C 53.9°F12.2°C 93% 3.5 mph WSW5.6 kmh WSW 3.5 mph5.6 kmh 29.93 in1013.5 mb - 0.00 in0.0 mm 0.11 in2.8 mm
03:50 AM 56.0°F13.3°C 54.0°F12.2°C 93% 2.3 mph WSW3.7 kmh WSW 3.5 mph5.6 kmh 29.93 in1013.5 mb - 0.00 in0.0 mm 0.11 in2.8 mm
03:40 AM 56.0°F13.3°C 54.0°F12.2°C 93% 1.2 mph WSW1.9 kmh WSW 3.5 mph5.6 kmh 29.93 in1013.5 mb - 0.00 in0.0 mm 0.11 in2.8 mm
03:30 AM 56.0°F13.3°C 54.0°F12.2°C 93% 3.5 mph SW5.6 kmh SW 5.8 mph9.3 kmh 29.92 in1013.2 mb - 0.00 in0.0 mm 0.11 in2.8 mm
03:20 AM 56.0°F13.3°C 54.0°F12.2°C 93% 2.3 mph SW3.7 kmh SW 4.6 mph7.4 kmh 29.92 in1013.2 mb - 0.00 in0.0 mm 0.11 in2.8 mm
03:10 AM 56.1°F13.4°C 54.1°F12.3°C 93% 4.6 mph SW7.4 kmh SW 4.6 mph7.4 kmh 29.92 in1013.2 mb - 0.00 in0.0 mm 0.11 in2.8 mm
03:00 AM 56.2°F13.4°C 54.2°F12.3°C 93% 4.6 mph SW7.4 kmh SW 9.2 mph14.8 kmh 29.92 in1013.2 mb - 0.00 in0.0 mm 0.11 in2.8 mm
02:50 AM 56.3°F13.5°C 54.3°F12.4°C 93% 4.6 mph SW7.4 kmh SW 8.1 mph13.0 kmh 29.92 in1013.2 mb - 0.00 in0.0 mm 0.11 in2.8 mm
02:40 AM 56.4°F13.6°C 54.4°F12.4°C 93% 3.5 mph SW5.6 kmh SW 5.8 mph9.3 kmh 29.92 in1013.2 mb - 0.00 in0.0 mm 0.11 in2.8 mm
02:30 AM 56.4°F13.6°C 54.1°F12.3°C 92% 3.5 mph WSW5.6 kmh WSW 5.8 mph9.3 kmh 29.92 in1013.2 mb - 0.00 in0.0 mm 0.11 in2.8 mm
02:20 AM 56.5°F13.6°C 54.2°F12.3°C 92% 2.3 mph SW3.7 kmh SW 4.6 mph7.4 kmh 29.93 in1013.5 mb - 0.00 in0.0 mm 0.11 in2.8 mm
02:10 AM 56.5°F13.6°C 54.2°F12.3°C 92% 1.2 mph WSW1.9 kmh WSW 3.5 mph5.6 kmh 29.93 in1013.5 mb - 0.00 in0.0 mm 0.11 in2.8 mm
02:00 AM 56.6°F13.7°C 54.3°F12.4°C 92% 1.2 mph WSW1.9 kmh WSW 2.3 mph3.7 kmh 29.93 in1013.5 mb - 0.00 in0.0 mm 0.11 in2.8 mm
01:50 AM 56.6°F13.7°C 54.3°F12.4°C 92% 2.3 mph WSW3.7 kmh WSW 4.6 mph7.4 kmh 29.93 in1013.5 mb - 0.00 in0.0 mm 0.11 in2.8 mm
01:40 AM 56.7°F13.7°C 54.4°F12.4°C 92% 2.3 mph WSW3.7 kmh WSW 5.8 mph9.3 kmh 29.93 in1013.5 mb - 0.00 in0.0 mm 0.11 in2.8 mm
01:30 AM 56.7°F13.7°C 54.4°F12.4°C 92% 5.8 mph SW9.3 kmh SW 6.9 mph11.1 kmh 29.93 in1013.5 mb - 0.00 in0.0 mm 0.11 in2.8 mm
01:20 AM 56.8°F13.8°C 54.5°F12.5°C 92% 4.6 mph SW7.4 kmh SW 9.2 mph14.8 kmh 29.93 in1013.5 mb - 0.00 in0.0 mm 0.11 in2.8 mm
01:10 AM 56.8°F13.8°C 54.5°F12.5°C 92% 4.6 mph WSW7.4 kmh WSW 6.9 mph11.1 kmh 29.93 in1013.5 mb - 0.00 in0.0 mm 0.11 in2.8 mm
01:00 AM 56.8°F13.8°C 54.5°F12.5°C 92% 2.3 mph SW3.7 kmh SW 3.5 mph5.6 kmh 29.94 in1013.9 mb - 0.00 in0.0 mm 0.11 in2.8 mm
12:50 AM 56.9°F13.8°C 54.6°F12.6°C 92% 2.3 mph WSW3.7 kmh WSW 3.5 mph5.6 kmh 29.94 in1013.9 mb - 0.00 in0.0 mm 0.11 in2.8 mm
12:40 AM 57.0°F13.9°C 54.7°F12.6°C 92% 3.5 mph SW5.6 kmh SW 8.1 mph13.0 kmh 29.94 in1013.9 mb - 0.00 in0.0 mm 0.11 in2.8 mm
12:30 AM 57.1°F13.9°C 54.8°F12.7°C 92% 4.6 mph SW7.4 kmh SW 5.8 mph9.3 kmh 29.94 in1013.9 mb - 0.00 in0.0 mm 0.11 in2.8 mm
12:20 AM 57.2°F14.0°C 54.9°F12.7°C 92% 2.3 mph SW3.7 kmh SW 4.6 mph7.4 kmh 29.94 in1013.9 mb - 0.01 in0.3 mm 0.11 in2.8 mm
12:10 AM 57.4°F14.1°C 54.8°F12.7°C 91% 3.5 mph SW5.6 kmh SW 5.8 mph9.3 kmh 29.95 in1014.2 mb - 0.00 in0.0 mm 0.10 in2.5 mm
12:00 AM 57.6°F14.2°C 55.0°F12.8°C 91% 3.5 mph SW5.6 kmh SW 8.1 mph13.0 kmh 29.95 in1014.2 mb - 0.00 in0.0 mm 0.10 in2.5 mm